Terminal Aerodrome Forecast
Issued by NWS

Home | Current Version | Previous Version | Text Only | Print | Product List | Glossary On
Versions: 1 2 3 4 5 6 7 8 9 10 11 12 13 14 15 16 17 18 19 20 21 22 23 24 25 26 27 28 29 30 31 32 33 34 35 36
000
FTUS43 KILX 291316 AAA
TAFBMI
TAF AMD
KBMI 291316Z 2913/3012 35008KT 2SM BR OVC006
     FM291400 36008KT 4SM BR OVC008
     FM291600 04009KT P6SM BKN015
     FM291800 08008KT P6SM BKN100
     FM300400 08013KT P6SM VCSH BKN100=

USA.gov is the U.S. government's official web portal to all federal, state and local government web resources and services.